Terminal Aerodrome Forecast
Issued by NWS Brownsville, TX

Home | Current Version | Previous Version | Text Only | Print | Product List | Glossary On
Versions: 1 2 3 4 5 6 7 8 9 10 11 12 13 14 15 16 17 18 19 20 21 22 23 24 25 26
550
FTUS44 KBRO 260542
TAFHRL
TAF
KHRL 260542Z 2606/2706 VRB04KT P6SM FEW030
     FM261400 02005KT P6SM VCTS BKN025CB
      TEMPO 2615/2619 2SM TSRA
     FM261900 07010KT P6SM VCTS BKN040CB PROB30 2619/2623 2SM TSRA
      BKN030CB
     FM262300 08010KT P6SM BKN040 OVC200
     FM270200 07004KT P6SM SCT025 PROB30 2703/2706 5SM SHRA BKN025=

USA.gov is the U.S. government's official web portal to all federal, state and local government web resources and services.